Plymouth Light

42° 00' 12"N, 70° 36' 04"W, Elevation 54 ft.
Eastern Time

Hourly observations for the last 72 hours

Date Time Temperature (°F) Humi-
dity

(%)
Wind
(mph)
Pressure Rain (in) Sun
(W/m2)
ET
(in)
Air Dew 6 Hour 1 Hr 3 Hr 6 Hr Day
Alt
(in)
Sea
Level

(mb)
Max Min
19 08:00 34.9 34.1 97 W 8 G 13 29.58 1001.8 0.00 18 0.000
19 07:00 35.2 34.4 37.3 34.4 97 NW 5 G 9 29.58 1001.6 0.00 0 0.000
19 06:00 36.4 35.9 98 W 7 G 12 29.56 1000.9 0.00 0 0.000
19 05:00 36.3 35.8 98 W 14 G 19 29.55 1000.7 0.00 0 0.000
19 04:00 35.5 35.0 98 W 12 G 16 29.58 1001.8 0.00 0 0.000
19 03:00 37.1 36.6 98 W 12 G 17 29.58 1001.7 0.00 0 0.000
19 02:00 34.9 34.4 98 WSW 5 G 11 29.60 1002.5 0.00 0 0.000
19 01:00 34.8 34.3 34.8 26.4 98 NW 3 G 8 29.64 1003.9 0.01 0.01 0.01 0.00 0 0.000
19 00:00 34.0 33.2 97 S 12 G 17 29.72 1006.6 0.00 0 0.026
18 23:00 33.5 32.7 97 S 20 G 24 29.80 1009.1 0.00 0 0.026
18 22:00 32.4 31.4 96 S 18 G 24 29.86 1011.2 0.00 0 0.026
18 21:00 30.7 29.4 95 S 28 G 39 29.91 1012.9 0.00 0 0.025
18 20:00 29.2 27.7 94 S 21 G 36 30.00 1016.0 0.00 0 0.024
18 19:00 26.6 24.6 26.6 19.8 92 S 20 G 29 30.09 1019.0 0.00 0 0.023
18 18:00 23.7 17.2 76 S 11 G 15 30.16 1021.5 0.00 0 0.022
18 17:00 22.3 10.9 61 SW 6 G 12 30.23 1023.8 0.00 0 0.021
18 16:00 22.4 10.6 60 SW 12 G 17 30.27 1025.0 0.00 14 0.020
18 15:00 21.8 9.3 58 SW 8 G 13 30.31 1026.4 0.00 47 0.018
18 14:00 21.4 10.4 62 WSW 5 G 11 30.33 1027.2 0.00 72 0.016
18 13:00 19.8 8.5 19.9 13.2 61 E 1 G 3 30.36 1028.2 0.00 153 0.014
18 12:00 17.8 8.0 65 SSW 1 G 4 30.40 1029.4 0.00 142 0.012
18 11:00 17.6 7.1 63 W 2 G 4 30.43 1030.5 0.00 216 0.010
18 10:00 15.7 5.7 64 NW 3 G 8 30.48 1032.2 0.00 179 0.009
18 09:00 14.4 4.8 65 N 4 G 12 30.49 1032.4 0.00 83 0.008
18 08:00 13.9 5.3 68 NNW 9 G 13 30.51 1033.2 0.00 42 0.007
18 07:00 13.3 4.4 13.8 12.6 67 NNW 8 G 13 30.53 1033.9 0.00 0 0.006
18 06:00 12.8 2.6 63 NNW 10 G 15 30.53 1034.1 0.00 0 0.005
18 05:00 12.8 3.3 65 NNW 7 G 15 30.53 1034.0 0.00 0 0.004
18 04:00 13.5 3.9 65 NW 8 G 19 30.54 1034.3 0.00 0 0.003
18 03:00 13.3 3.4 64 NNW 10 G 15 30.54 1034.3 0.00 0 0.002
18 02:00 13.7 2.7 61 NNW 11 G 17 30.54 1034.4 0.00 0 0.001
18 01:00 13.8 2.8 19.2 13.8 61 N 7 G 17 30.53 1033.9 0.00 0 0.000
18 00:00 14.2 2.1 58 NNW 9 G 17 30.55 1034.5 0.00 0 0.079
17 23:00 14.8 2.3 57 NNW 12 G 18 30.57 1035.3 0.00 0 0.078
17 22:00 15.7 3.2 57 NNW 12 G 21 30.54 1034.3 0.00 0 0.076
17 21:00 17.3 5.8 60 N 11 G 20 30.52 1033.6 0.00 0 0.074
17 20:00 18.1 5.4 57 N 15 G 23 30.53 1033.8 0.00 0 0.072
17 19:00 18.6 1.7 21.8 18.6 47 NNW 18 G 29 30.54 1034.2 0.00 0 0.069
17 18:00 19.4 -0.5 41 N 18 G 30 30.53 1033.8 0.00 0 0.066
17 17:00 19.9 2.0 45 NNW 13 G 27 30.50 1032.8 0.00 0 0.063
17 16:00 21.2 2.2 43 N 14 G 26 30.48 1032.0 0.00 40 0.059
17 15:00 21.5 2.4 43 N 15 G 28 30.46 1031.5 0.00 206 0.053
17 14:00 21.4 4.3 47 NNW 13 G 24 30.44 1030.7 0.00 352 0.046
17 13:00 20.6 3.1 20.9 16.4 46 NNW 17 G 26 30.41 1030.0 0.00 434 0.039
17 12:00 20.4 6.4 54 N 15 G 28 30.42 1030.2 0.00 471 0.032
17 11:00 19.1 5.6 55 NNW 16 G 26 30.42 1030.1 0.00 450 0.026
17 10:00 17.6 5.7 59 N 15 G 27 30.41 1029.7 0.00 381 0.021
17 09:00 16.7 5.2 60 N 18 G 31 30.37 1028.4 0.00 260 0.017
17 08:00 17.5 6.3 61 N 19 G 32 30.33 1027.1 0.00 86 0.015
17 07:00 18.1 6.9 26.9 18.1 61 NNW 18 G 33 30.28 1025.6 0.00 0 0.013
17 06:00 20.0 10.5 66 N 22 G 35 30.25 1024.3 0.00 0 0.011
17 05:00 20.7 10.4 64 N 21 G 31 30.18 1022.0 0.00 0 0.009
17 04:00 22.3 12.0 64 NNW 21 G 33 30.12 1020.1 0.00 0 0.007
17 03:00 23.4 13.0 64 NNW 16 G 32 30.09 1019.0 0.00 0 0.005
17 02:00 25.1 15.3 66 NNW 21 G 32 30.05 1017.7 0.00 0 0.003
17 01:00 26.9 16.7 34.9 26.9 65 N 16 G 34 30.01 1016.3 0.00 0 0.000
17 00:00 29.0 17.6 62 N 18 G 32 29.97 1014.8 0.02 0 0.067
16 23:00 30.2 19.1 63 N 20 G 30 29.93 1013.7 0.02 0 0.065
16 22:00 31.4 21.0 65 NNW 16 G 26 29.91 1012.8 0.02 0 0.062
16 21:00 32.5 21.7 64 N 19 G 33 29.88 1011.8 0.02 0 0.059
16 20:00 33.9 21.9 61 NNW 21 G 35 29.85 1011.0 0.02 0 0.056
16 19:00 34.9 23.2 43.9 34.9 62 NNW 20 G 30 29.82 1009.9 0.02 0 0.052
16 18:00 36.0 23.9 61 NNW 19 G 37 29.78 1008.5 0.02 0 0.048
16 17:00 37.8 26.3 63 NNW 21 G 35 29.73 1006.6 0.02 0 0.044
16 16:00 39.3 28.9 66 NNW 26 G 39 29.68 1005.0 0.02 49 0.039
16 15:00 41.4 32.7 71 N 20 G 33 29.61 1002.9 0.02 40 0.034
16 14:00 42.6 33.1 69 NNW 22 G 40 29.58 1001.8 0.02 60 0.025
16 13:00 43.4 34.6 45.3 39.6 71 NW 27 G 43 29.56 1000.9 0.01 0.02 431 0.018
16 12:00 45.2 37.4 74 NW 23 G 36 29.56 1001.0 0.02 552 0.009
16 11:00 43.4 40.7 90 WNW 20 G 31 29.61 1002.6 0.02 193 0.006
16 10:00 41.6 40.3 95 SW 6 G 13 29.64 1003.8 0.01 0.01 0.02 39 0.005
16 09:00 40.6 39.0 94 S 17 G 22 29.67 1004.7 0.01 18 0.004

Data generated by WxSolution Version 1.9.1.1, Build 2017.11.27.